createdAt,value
2018-12-10T00:01:40.026Z,1006
2018-12-10T00:11:55.410Z,1006.2
2018-12-10T00:22:10.006Z,1006.3
2018-12-10T00:32:24.206Z,1006.4
2018-12-10T00:42:38.830Z,1006.6
2018-12-10T00:52:53.757Z,1006.7
2018-12-10T01:03:09.333Z,1006.8
2018-12-10T01:13:23.853Z,1006.8
2018-12-10T01:23:38.449Z,1006.9
2018-12-10T01:33:53.688Z,1007.2
2018-12-10T01:44:09.290Z,1007.2
2018-12-10T01:54:23.705Z,1007.5
2018-12-10T02:04:37.708Z,1007.7
2018-12-10T02:14:52.163Z,1007.7
2018-12-10T02:25:06.601Z,1007.8
2018-12-10T02:35:21.417Z,1007.8
2018-12-10T02:45:35.337Z,1007.9
2018-12-10T02:55:49.391Z,1007.9
2018-12-10T03:06:03.366Z,1008
2018-12-10T03:16:17.945Z,1008.1
2018-12-10T03:26:32.497Z,1008.4
2018-12-10T03:36:47.218Z,1008.5
2018-12-10T03:47:01.749Z,1008.6
2018-12-10T03:57:17.021Z,1008.7
2018-12-10T04:07:31.199Z,1008.8
2018-12-10T04:17:45.275Z,1008.7
2018-12-10T04:28:00.357Z,1008.8
2018-12-10T04:38:15.135Z,1008.8
2018-12-10T04:48:30.422Z,1009
2018-12-10T04:58:44.590Z,1009.2
2018-12-10T05:08:58.299Z,1009.4
2018-12-10T05:19:12.288Z,1009.6
2018-12-10T05:29:25.989Z,1009.6
2018-12-10T05:39:40.996Z,1009.6
2018-12-10T05:49:55.737Z,1009.8
2018-12-10T06:00:10.382Z,1009.9
2018-12-10T06:10:24.264Z,1010
2018-12-10T06:20:39.096Z,1010.1
2018-12-10T06:30:52.962Z,1010.1
2018-12-10T06:41:06.956Z,1010.1
2018-12-10T06:51:21.167Z,1010.2
2018-12-10T07:01:34.929Z,1010.4
2018-12-10T07:11:48.635Z,1010.5
2018-12-10T07:22:02.831Z,1010.6
2018-12-10T07:32:17.646Z,1010.7
2018-12-10T07:42:31.872Z,1010.9
2018-12-10T07:52:47.308Z,1010.9
2018-12-10T08:03:02.748Z,1011
2018-12-10T08:13:17.624Z,1011.2
2018-12-10T08:23:31.312Z,1011.3
2018-12-10T08:33:45.229Z,1011.4
2018-12-10T08:43:58.905Z,1011.4
2018-12-10T08:54:12.942Z,1011.4
2018-12-10T09:04:28.438Z,1011.7
2018-12-10T09:14:42.285Z,1011.7
2018-12-10T09:24:56.578Z,1011.8
2018-12-10T09:35:11.337Z,1011.8
2018-12-10T09:45:26.164Z,1012
2018-12-10T09:55:41.714Z,1011.9
2018-12-10T10:05:55.358Z,1011.9
2018-12-10T10:16:10.344Z,1012
2018-12-10T10:26:24.313Z,1011.9
2018-12-10T10:36:39.332Z,1011.9
2018-12-10T10:46:54.574Z,1012.1
2018-12-10T10:57:09.986Z,1011.9
2018-12-10T11:07:25.009Z,1012
2018-12-10T11:17:40.749Z,1012
2018-12-10T11:27:54.524Z,1011.8
2018-12-10T11:38:09.829Z,1012
2018-12-10T11:48:23.570Z,1012.1
2018-12-10T11:58:37.288Z,1011.8
2018-12-10T12:08:51.249Z,1011.7
2018-12-10T12:19:05.301Z,1011.6
2018-12-10T12:29:20.498Z,1011.7
2018-12-10T12:39:35.328Z,1011.6
2018-12-10T12:49:50.742Z,1011.6
2018-12-10T13:00:05.698Z,1011.3
2018-12-10T13:10:19.932Z,1011.5
2018-12-10T13:20:33.622Z,1011.5
2018-12-10T13:30:48.394Z,1011.4
2018-12-10T13:41:03.933Z,1011.4
2018-12-10T13:51:17.980Z,1011.4
2018-12-10T14:01:33.798Z,1011.6
2018-12-10T14:11:48.152Z,1011.7
2018-12-10T14:22:02.342Z,1011.8
2018-12-10T14:32:16.071Z,1011.8
2018-12-10T14:42:31.567Z,1011.9
2018-12-10T14:52:45.418Z,1011.7
2018-12-10T15:03:00.944Z,1011.9
2018-12-10T15:13:16.513Z,1012.1
2018-12-10T15:23:31.480Z,1012.4
2018-12-10T15:33:46.293Z,1012.2
2018-12-10T15:44:00.466Z,1012.3
2018-12-10T15:54:14.885Z,1012.4
2018-12-10T16:04:29.637Z,1012.4
2018-12-10T16:14:45.277Z,1012.4
2018-12-10T16:24:59.942Z,1012.4
2018-12-10T16:35:13.940Z,1012.5
2018-12-10T16:45:27.703Z,1012.6
2018-12-10T16:55:41.754Z,1012.6
2018-12-10T17:05:55.836Z,1012.6
2018-12-10T17:16:10.459Z,1012.6
2018-12-10T17:26:24.358Z,1012.8
2018-12-10T17:36:39.104Z,1012.8
2018-12-10T17:46:53.291Z,1012.9
2018-12-10T17:57:07.678Z,1012.8
2018-12-10T18:07:21.949Z,1012.8
2018-12-10T18:17:35.724Z,1012.7
2018-12-10T18:27:51.102Z,1012.8
2018-12-10T18:38:06.385Z,1012.7
2018-12-10T18:48:20.696Z,1012.8
2018-12-10T18:58:35.959Z,1012.9
2018-12-10T19:08:49.875Z,1013
2018-12-10T19:19:04.867Z,1013
2018-12-10T19:29:18.679Z,1013
2018-12-10T19:39:32.707Z,1013.1
2018-12-10T19:49:48.313Z,1013
2018-12-10T20:00:03.555Z,1013.1
2018-12-10T20:10:19.481Z,1013.3
2018-12-10T20:20:33.710Z,1013.3
2018-12-10T20:30:47.618Z,1013.3
2018-12-10T20:41:02.884Z,1013.3
2018-12-10T20:51:17.632Z,1013.3
2018-12-10T21:01:33.193Z,1013.5
2018-12-10T21:11:47.710Z,1013.6
2018-12-10T21:22:02.994Z,1013.5
2018-12-10T21:32:17.645Z,1013.5
2018-12-10T21:42:31.502Z,1013.5
2018-12-10T21:52:45.826Z,1013.5
2018-12-10T22:03:00.160Z,1013.6
2018-12-10T22:13:14.826Z,1013.6
2018-12-10T22:23:29.090Z,1013.5
2018-12-10T22:33:42.799Z,1013.5
2018-12-10T22:43:58.045Z,1013.8
2018-12-10T22:54:12.235Z,1013.7
2018-12-10T23:04:26.451Z,1013.7
2018-12-10T23:14:41.131Z,1013.6
2018-12-10T23:24:56.229Z,1013.7
2018-12-10T23:35:10.908Z,1013.7
2018-12-10T23:45:26.372Z,1013.8
2018-12-10T23:55:41.242Z,1013.8
